Time;durP1;ratioP1;P1;durP2;ratioP2;P2;SDS_P1;SDS_P2;PMS_P1;PMS_P2;Temp;Humidity;BMP_temperature;BMP_pressure;BME280_temperature;BME280_humidity;BME280_pressure;Samples;Min_cycle;Max_cycle;Signal;HPM_P1;HPM_P2
2023/06/03 00:01:07;;;;;;;7.30;3.00;;;20.20;21.90;;;;;;10443382;28;20320;-72
2023/06/03 00:06:12;;;;;;;7.60;3.17;;;20.10;22.00;;;;;;10440568;28;20319;-73
2023/06/03 00:11:16;;;;;;;3.83;3.00;;;20.00;22.30;;;;;;10444066;28;20263;-73
2023/06/03 00:16:19;;;;;;;3.83;2.80;;;19.80;22.10;;;;;;10441600;28;20264;-73
2023/06/03 00:21:24;;;;;;;3.97;3.07;;;19.70;22.20;;;;;;10438218;28;20241;-73
2023/06/03 00:26:27;;;;;;;3.80;2.47;;;19.70;22.50;;;;;;10439743;28;20225;-73
2023/06/03 00:31:30;;;;;;;5.83;3.33;;;19.60;22.40;;;;;;10445846;28;20323;-73
2023/06/03 00:36:35;;;;;;;4.67;2.43;;;19.50;22.60;;;;;;10435621;28;20325;-72
2023/06/03 00:41:39;;;;;;;5.40;2.57;;;19.40;22.80;;;;;;10443290;28;20232;-73
2023/06/03 00:46:42;;;;;;;4.20;2.80;;;19.20;22.70;;;;;;10441047;28;20229;-72
2023/06/03 00:51:48;;;;;;;5.40;2.70;;;19.30;22.90;;;;;;10434469;28;20237;-73
2023/06/03 00:56:52;;;;;;;2.90;2.57;;;19.30;23.30;;;;;;10434206;28;20243;-72
2023/06/03 01:01:55;;;;;;;3.57;2.87;;;19.20;23.00;;;;;;10431250;28;20235;-72
2023/06/03 01:07:26;;;;;;;5.87;3.13;;;19.20;23.10;;;;;;10435958;28;20221;-73
2023/06/03 01:12:34;;;;;;;4.60;2.63;;;19.10;23.80;;;;;;10435539;28;20228;-73
2023/06/03 01:17:45;;;;;;;3.10;2.50;;;19.10;23.40;;;;;;10436422;28;20229;-73
2023/06/03 01:22:56;;;;;;;4.30;2.80;;;19.00;23.20;;;;;;10432173;28;20315;-73
2023/06/03 01:28:03;;;;;;;5.20;3.00;;;19.00;23.70;;;;;;10436787;28;20254;-73
2023/06/03 01:33:07;;;;;;;3.27;2.50;;;18.90;23.60;;;;;;10435044;28;20317;-72
2023/06/03 01:38:11;;;;;;;4.63;2.73;;;18.90;23.50;;;;;;10436928;28;20805;-72
2023/06/03 01:43:15;;;;;;;4.20;2.63;;;18.80;23.50;;;;;;10452979;28;20239;-72
2023/06/03 01:48:18;;;;;;;3.47;2.07;;;18.80;23.90;;;;;;10452429;28;20217;-73
2023/06/03 01:53:22;;;;;;;4.00;2.70;;;18.80;23.60;;;;;;10437508;28;20237;-72
2023/06/03 01:58:26;;;;;;;6.73;3.10;;;18.70;23.70;;;;;;10446752;28;20709;-72
2023/06/03 02:03:29;;;;;;;4.67;2.70;;;18.70;24.10;;;;;;10442184;28;20221;-73
2023/06/03 02:08:32;;;;;;;5.87;2.30;;;18.60;23.80;;;;;;10443802;28;20232;-72
2023/06/03 02:13:37;;;;;;;3.00;2.50;;;18.60;23.80;;;;;;10443024;28;20237;-72
2023/06/03 02:18:40;;;;;;;5.40;2.73;;;18.50;24.30;;;;;;10440572;28;20225;-72
2023/06/03 02:23:43;;;;;;;6.30;3.00;;;18.40;24.20;;;;;;10436477;28;20231;-72
2023/06/03 02:28:48;;;;;;;3.13;2.67;;;18.40;24.20;;;;;;10441138;28;20232;-72
2023/06/03 02:33:51;;;;;;;3.30;2.73;;;18.30;24.20;;;;;;10451032;28;20237;-72
2023/06/03 02:38:54;;;;;;;3.80;2.73;;;18.30;24.20;;;;;;10434394;28;20225;-72
2023/06/03 02:43:59;;;;;;;3.90;2.90;;;18.20;24.10;;;;;;10437633;28;20711;-72
2023/06/03 02:49:04;;;;;;;3.50;2.90;;;18.20;24.20;;;;;;10433371;28;20283;-73
2023/06/03 02:54:08;;;;;;;3.27;2.40;;;18.10;24.20;;;;;;10445823;28;20311;-72
2023/06/03 02:59:13;;;;;;;4.27;2.93;;;18.10;24.00;;;;;;10444818;28;20578;-72
2023/06/03 03:04:16;;;;;;;3.57;2.67;;;18.10;24.50;;;;;;10446348;28;20225;-72
2023/06/03 03:09:19;;;;;;;4.37;2.60;;;18.00;24.00;;;;;;10445626;28;20806;-73
2023/06/03 03:14:23;;;;;;;4.37;2.80;;;17.90;24.10;;;;;;10442786;28;20687;-72
2023/06/03 03:19:27;;;;;;;3.67;2.53;;;17.80;24.60;;;;;;10433876;28;20232;-72
2023/06/03 03:24:30;;;;;;;3.83;2.50;;;17.70;24.50;;;;;;10437377;28;20755;-72
2023/06/03 03:29:35;;;;;;;6.47;2.90;;;17.70;24.60;;;;;;10436733;28;20233;-72
2023/06/03 03:34:38;;;;;;;5.17;2.97;;;17.60;24.90;;;;;;10438896;28;20236;-72
2023/06/03 03:39:42;;;;;;;3.70;3.00;;;17.60;25.30;;;;;;10435036;28;20245;-72
2023/06/03 03:44:47;;;;;;;5.97;2.87;;;17.60;24.80;;;;;;10444090;28;20224;-73
2023/06/03 03:49:51;;;;;;;2.43;2.17;;;17.60;25.10;;;;;;10438818;28;20757;-72
2023/06/03 03:54:54;;;;;;;4.03;2.80;;;17.50;24.90;;;;;;10441762;28;20228;-72
2023/06/03 03:59:59;;;;;;;4.50;3.10;;;17.50;25.00;;;;;;10439435;28;20274;-72
2023/06/03 04:05:04;;;;;;;3.63;3.00;;;17.50;25.30;;;;;;10441866;28;20316;-72
2023/06/03 04:10:11;;;;;;;5.73;2.93;;;17.40;25.20;;;;;;10444185;28;20247;-72
2023/06/03 04:15:24;;;;;;;3.97;3.00;;;17.40;25.50;;;;;;10444639;28;20253;-72
2023/06/03 04:20:44;;;;;;;4.30;3.10;;;17.30;25.80;;;;;;10438208;28;20315;-72
2023/06/03 04:25:47;;;;;;;5.03;2.93;;;17.30;26.30;;;;;;10438138;28;20232;-72
2023/06/03 04:30:52;;;;;;;5.77;3.10;;;17.30;25.60;;;;;;10441171;28;21062;-72
2023/06/03 04:35:55;;;;;;;4.80;3.17;;;17.30;26.00;;;;;;10446252;28;20241;-72
2023/06/03 04:41:01;;;;;;;4.60;2.77;;;17.30;26.00;;;;;;10435052;28;20236;-72
2023/06/03 04:46:07;;;;;;;5.10;3.50;;;17.30;26.10;;;;;;10433122;28;20706;-72
2023/06/03 04:51:10;;;;;;;3.67;3.07;;;17.30;26.60;;;;;;10435355;28;20634;-72
2023/06/03 04:56:14;;;;;;;4.83;3.37;;;17.30;26.40;;;;;;10435604;28;20243;-72
2023/06/03 05:01:21;;;;;;;4.13;3.27;;;17.30;26.50;;;;;;10436196;28;20709;-73
2023/06/03 05:06:24;;;;;;;6.07;3.17;;;17.30;26.70;;;;;;10439152;28;20252;-72
2023/06/03 05:11:27;;;;;;;3.67;3.17;;;17.30;26.60;;;;;;10435986;28;20238;-72
2023/06/03 05:16:32;;;;;;;4.47;3.27;;;17.30;26.70;;;;;;10439646;28;20361;-73
2023/06/03 05:21:35;;;;;;;7.23;3.47;;;17.30;27.20;;;;;;10418626;28;20233;-72
2023/06/03 05:26:38;;;;;;;4.93;3.20;;;17.40;26.90;;;;;;10429667;28;20235;-72
2023/06/03 05:31:43;;;;;;;5.03;3.50;;;17.50;27.10;;;;;;10440010;28;20240;-72
2023/06/03 05:36:46;;;;;;;5.67;3.30;;;17.50;27.50;;;;;;10445613;28;20245;-72
2023/06/03 05:41:49;;;;;;;4.07;3.10;;;17.60;27.20;;;;;;10428947;28;20243;-72
2023/06/03 05:46:54;;;;;;;4.80;3.37;;;17.70;27.40;;;;;;10435598;28;20233;-73
2023/06/03 05:51:57;;;;;;;5.10;3.37;;;17.80;27.90;;;;;;10439914;28;20328;-73
2023/06/03 05:57:00;;;;;;;4.47;3.30;;;17.90;27.60;;;;;;10429724;28;20232;-73
2023/06/03 06:02:05;;;;;;;4.13;3.13;;;18.00;27.60;;;;;;10431290;28;20235;-72
2023/06/03 06:07:08;;;;;;;4.63;3.23;;;18.20;28.10;;;;;;10440772;28;20277;-73
2023/06/03 06:12:12;;;;;;;5.33;3.53;;;18.40;27.90;;;;;;10435401;28;20233;-73
2023/06/03 06:17:18;;;;;;;4.57;3.63;;;18.50;27.80;;;;;;10435565;28;20260;-73
2023/06/03 06:22:21;;;;;;;5.60;3.57;;;18.60;28.00;;;;;;10435708;28;20410;-73
2023/06/03 06:27:26;;;;;;;4.90;3.83;;;18.80;27.70;;;;;;10436656;28;20941;-72
2023/06/03 06:32:31;;;;;;;6.17;3.97;;;19.00;27.60;;;;;;10436488;28;20796;-73
2023/06/03 06:37:34;;;;;;;6.93;4.40;;;19.20;27.80;;;;;;10448325;28;20803;-72
2023/06/03 06:42:40;;;;;;;4.90;3.87;;;19.30;27.60;;;;;;10434078;28;20235;-73
2023/06/03 06:47:45;;;;;;;5.87;4.07;;;19.40;27.50;;;;;;10438788;28;20313;-73
2023/06/03 06:52:48;;;;;;;4.70;3.87;;;19.60;27.70;;;;;;10443622;28;20256;-73
2023/06/03 06:57:55;;;;;;;6.77;3.90;;;19.70;27.60;;;;;;10444067;28;20306;-73
2023/06/03 07:02:59;;;;;;;4.20;3.90;;;19.90;27.80;;;;;;10454093;28;20801;-73
2023/06/03 07:08:03;;;;;;;6.33;4.30;;;20.10;27.60;;;;;;10443552;28;20228;-72
2023/06/03 07:13:07;;;;;;;6.73;4.20;;;20.20;27.40;;;;;;10441682;28;20229;-73
2023/06/03 07:18:12;;;;;;;4.90;3.67;;;20.40;27.30;;;;;;10445376;28;20243;-73
2023/06/03 07:23:20;;;;;;;6.97;4.30;;;20.50;27.50;;;;;;10442906;28;20242;-73
2023/06/03 07:28:29;;;;;;;6.77;4.50;;;20.60;28.10;;;;;;10441388;28;20236;-72
2023/06/03 07:33:37;;;;;;;4.50;4.07;;;20.80;27.20;;;;;;10437137;28;20237;-76
2023/06/03 07:39:02;;;;;;;4.60;3.60;;;20.90;27.10;;;;;;10444617;28;20224;-76
2023/06/03 07:44:07;;;;;;;6.40;4.10;;;21.10;27.30;;;;;;10429787;28;20229;-76
2023/06/03 07:49:14;;;;;;;5.13;3.90;;;21.20;27.00;;;;;;10438883;28;20232;-76
2023/06/03 07:54:18;;;;;;;4.90;4.20;;;21.30;27.10;;;;;;10428796;28;20317;-75
2023/06/03 07:59:23;;;;;;;4.37;3.97;;;21.50;26.90;;;;;;10442007;28;20921;-76
2023/06/03 08:04:31;;;;;;;5.07;4.00;;;21.70;26.90;;;;;;10434182;28;20657;-76
2023/06/03 08:09:36;;;;;;;6.37;4.37;;;21.90;26.60;;;;;;10431191;28;20228;-75
2023/06/03 08:14:41;;;;;;;4.93;4.20;;;22.10;26.70;;;;;;10438597;28;20894;-75
2023/06/03 08:19:46;;;;;;;5.57;4.00;;;22.20;26.80;;;;;;10447856;28;20244;-76
2023/06/03 08:24:50;;;;;;;4.27;3.87;;;22.40;26.90;;;;;;10426914;28;20241;-76
2023/06/03 08:29:53;;;;;;;6.33;4.20;;;22.60;27.10;;;;;;10439343;28;20692;-74
2023/06/03 08:34:57;;;;;;;4.53;4.07;;;22.80;26.70;;;;;;10440938;28;20231;-73
2023/06/03 08:40:01;;;;;;;4.33;3.93;;;22.90;26.50;;;;;;10437281;28;20256;-74
2023/06/03 08:45:06;;;;;;;4.67;4.27;;;23.00;26.30;;;;;;10436040;28;20232;-73
2023/06/03 08:50:11;;;;;;;4.37;4.07;;;23.20;26.50;;;;;;10430752;28;20769;-73
2023/06/03 08:55:17;;;;;;;6.83;4.37;;;23.30;26.20;;;;;;10432295;28;20312;-74
2023/06/03 09:00:23;;;;;;;8.37;4.20;;;23.50;26.20;;;;;;10420983;28;20240;-75
2023/06/03 09:05:28;;;;;;;4.23;3.83;;;23.70;26.10;;;;;;10423524;28;20224;-75
2023/06/03 09:10:32;;;;;;;5.13;4.30;;;23.90;26.00;;;;;;10419605;28;20236;-75
2023/06/03 09:15:37;;;;;;;5.07;4.47;;;24.10;25.70;;;;;;10436798;28;20235;-74
2023/06/03 09:20:42;;;;;;;5.73;4.37;;;24.30;25.60;;;;;;10436950;28;20265;-74
2023/06/03 09:25:46;;;;;;;4.77;4.03;;;24.40;25.60;;;;;;10440504;28;20232;-74
2023/06/03 09:30:50;;;;;;;5.53;4.50;;;24.60;25.50;;;;;;10433369;28;20232;-73
2023/06/03 09:36:11;;;;;;;4.77;4.30;;;24.70;25.30;;;;;;10432988;28;20244;-73
2023/06/03 09:41:16;;;;;;;4.80;4.07;;;24.80;25.10;;;;;;10434574;28;20600;-74
2023/06/03 09:46:20;;;;;;;4.63;4.07;;;24.90;25.20;;;;;;10431919;28;20602;-73
2023/06/03 09:51:41;;;;;;;6.17;4.17;;;25.00;25.10;;;;;;10436039;28;20253;-73
2023/06/03 09:56:46;;;;;;;4.93;4.10;;;25.10;24.70;;;;;;10435392;28;20229;-73
2023/06/03 10:01:51;;;;;;;4.47;4.07;;;25.30;24.80;;;;;;10442808;28;21003;-73
2023/06/03 10:07:08;;;;;;;5.60;4.50;;;25.40;25.40;;;;;;10443832;28;20236;-73
2023/06/03 10:12:13;;;;;;;4.67;4.27;;;25.50;24.40;;;;;;10444201;28;20220;-74
2023/06/03 10:17:18;;;;;;;4.87;4.47;;;25.70;24.60;;;;;;10447349;28;20773;-73
2023/06/03 10:22:26;;;;;;;4.40;4.00;;;25.80;24.30;;;;;;10435439;28;20323;-74
2023/06/03 10:27:29;;;;;;;4.27;3.87;;;26.00;24.00;;;;;;10446308;28;20306;-73
2023/06/03 10:32:32;;;;;;;4.93;4.30;;;26.20;24.00;;;;;;10441345;28;20233;-74
2023/06/03 10:37:38;;;;;;;4.53;4.10;;;26.30;23.60;;;;;;10443926;28;20237;-73
2023/06/03 10:42:43;;;;;;;5.30;4.00;;;26.30;23.20;;;;;;10446625;28;20379;-74
2023/06/03 10:47:48;;;;;;;4.33;3.93;;;26.40;23.40;;;;;;10442307;28;20237;-74
2023/06/03 10:53:05;;;;;;;5.03;4.17;;;26.40;23.90;;;;;;10440089;28;20263;-74
2023/06/03 10:58:15;;;;;;;7.53;3.90;;;26.40;22.80;;;;;;10443343;28;20225;-74
2023/06/03 11:03:21;;;;;;;4.43;4.03;;;26.50;22.80;;;;;;10443085;28;20259;-74
2023/06/03 11:09:02;;;;;;;4.70;4.20;;;26.50;22.80;;;;;;10441636;28;20235;-74
2023/06/03 11:14:06;;;;;;;5.07;4.03;;;26.50;22.70;;;;;;10438834;28;20266;-74
2023/06/03 11:19:30;;;;;;;5.23;4.10;;;26.50;22.80;;;;;;10440175;28;20233;-74
2023/06/03 11:24:52;;;;;;;4.43;3.93;;;26.60;22.50;;;;;;10438465;28;20228;-74
2023/06/03 11:29:57;;;;;;;4.70;4.30;;;26.70;22.50;;;;;;10440968;28;20980;-74
2023/06/03 11:35:29;;;;;;;4.43;4.07;;;26.80;22.20;;;;;;10435591;28;20732;-74
2023/06/03 11:40:48;;;;;;;4.00;3.70;;;26.70;21.80;;;;;;10434153;28;20229;-74
2023/06/03 11:45:52;;;;;;;5.20;4.30;;;26.70;21.80;;;;;;10437095;28;20238;-74
2023/06/03 11:50:57;;;;;;;4.10;3.80;;;26.70;21.90;;;;;;10439020;28;20244;-74
2023/06/03 11:56:08;;;;;;;4.73;3.80;;;26.70;21.80;;;;;;10439613;28;20607;-74
2023/06/03 12:01:17;;;;;;;4.03;3.63;;;26.70;21.40;;;;;;10425378;28;20282;-75
2023/06/03 12:06:20;;;;;;;4.17;3.80;;;26.80;21.60;;;;;;10433813;28;20221;-74
2023/06/03 12:11:29;;;;;;;4.50;4.10;;;26.90;21.30;;;;;;10434905;28;20234;-75
2023/06/03 12:16:34;;;;;;;3.80;3.50;;;26.90;20.50;;;;;;10436570;28;20225;-75
2023/06/03 12:21:39;;;;;;;4.50;4.00;;;27.00;21.20;;;;;;10441581;28;20232;-75
2023/06/03 12:26:44;;;;;;;6.70;3.80;;;27.00;21.50;;;;;;10438426;28;20235;-74
2023/06/03 12:31:58;;;;;;;5.30;4.03;;;27.10;21.20;;;;;;10440195;28;20240;-75
2023/06/03 12:37:02;;;;;;;4.63;3.73;;;27.20;20.90;;;;;;10433416;28;20311;-75
2023/06/03 12:42:08;;;;;;;4.20;3.80;;;27.20;20.90;;;;;;10432802;28;20835;-75
2023/06/03 12:47:12;;;;;;;4.17;3.80;;;27.20;20.50;;;;;;10438657;28;20240;-75
2023/06/03 12:52:17;;;;;;;4.43;3.57;;;27.20;20.80;;;;;;10440421;28;20236;-75
2023/06/03 12:57:25;;;;;;;4.33;3.23;;;27.20;20.50;;;;;;10443444;28;20251;-75
2023/06/03 13:02:28;;;;;;;4.23;3.53;;;27.20;20.60;;;;;;10439938;28;20712;-75
2023/06/03 13:07:34;;;;;;;3.53;3.23;;;27.20;20.70;;;;;;10436978;28;20294;-75
2023/06/03 13:12:40;;;;;;;5.03;3.87;;;27.30;20.40;;;;;;10439194;28;20233;-75
2023/06/03 13:17:43;;;;;;;4.13;3.83;;;27.20;20.30;;;;;;10438557;28;20236;-75
2023/06/03 13:22:47;;;;;;;4.20;3.33;;;27.20;20.30;;;;;;10421926;28;20286;-75
2023/06/03 13:27:51;;;;;;;3.87;3.57;;;27.20;20.00;;;;;;10421516;28;20229;-75
2023/06/03 13:32:55;;;;;;;4.20;3.80;;;27.20;19.70;;;;;;10433963;28;20241;-75
2023/06/03 13:37:58;;;;;;;4.57;3.80;;;27.30;19.90;;;;;;10444028;28;20316;-75
2023/06/03 13:43:03;;;;;;;5.07;3.57;;;27.30;19.80;;;;;;10445283;28;20235;-74
2023/06/03 13:48:06;;;;;;;4.53;3.30;;;27.40;19.80;;;;;;10446925;28;20229;-75
2023/06/03 13:53:10;;;;;;;5.43;3.40;;;27.40;19.80;;;;;;10442601;28;20318;-75
2023/06/03 13:58:15;;;;;;;4.60;4.20;;;27.50;19.80;;;;;;10444579;28;20319;-75
2023/06/03 14:03:18;;;;;;;4.53;4.13;;;27.50;19.80;;;;;;10438889;28;20233;-75
2023/06/03 14:08:21;;;;;;;4.27;3.70;;;27.50;19.80;;;;;;10440361;28;20224;-75
2023/06/03 14:13:25;;;;;;;5.03;4.30;;;27.60;19.80;;;;;;10447963;28;20239;-74
2023/06/03 14:18:29;;;;;;;4.07;3.70;;;27.60;19.90;;;;;;10442069;28;20224;-74
2023/06/03 14:23:32;;;;;;;4.47;4.00;;;27.60;19.60;;;;;;10446441;28;20313;-77
2023/06/03 14:28:37;;;;;;;5.40;3.80;;;27.60;19.90;;;;;;10441259;28;20221;-74
2023/06/03 14:33:40;;;;;;;4.17;3.83;;;27.70;19.30;;;;;;10441727;28;20310;-74
2023/06/03 14:38:44;;;;;;;3.90;3.60;;;27.70;19.40;;;;;;10441614;28;20229;-74
2023/06/03 14:43:48;;;;;;;4.03;3.70;;;27.70;19.30;;;;;;10441296;28;20916;-75
2023/06/03 14:48:52;;;;;;;4.00;3.70;;;27.70;18.40;;;;;;10444342;28;20232;-74
2023/06/03 14:53:55;;;;;;;4.33;3.70;;;27.70;18.90;;;;;;10441837;28;20291;-74
2023/06/03 14:58:59;;;;;;;4.93;3.97;;;27.70;18.90;;;;;;10441014;28;21045;-74
2023/06/03 15:04:03;;;;;;;4.90;4.30;;;27.70;18.60;;;;;;10436944;28;20232;-74
2023/06/03 15:09:06;;;;;;;4.73;4.33;;;27.70;18.70;;;;;;10441225;28;20233;-74
2023/06/03 15:14:11;;;;;;;4.50;4.20;;;27.60;18.50;;;;;;10442728;28;20237;-74
2023/06/03 15:19:14;;;;;;;6.63;4.20;;;27.50;18.60;;;;;;10431156;28;20243;-74
2023/06/03 15:24:17;;;;;;;5.87;3.87;;;27.40;18.70;;;;;;10438797;28;20244;-74
2023/06/03 15:29:25;;;;;;;4.30;3.90;;;27.30;19.00;;;;;;10440417;28;20260;-74
2023/06/03 15:34:29;;;;;;;4.40;4.00;;;27.40;18.70;;;;;;10429554;28;20254;-74
2023/06/03 15:39:32;;;;;;;4.57;4.17;;;27.30;18.60;;;;;;10442722;28;20228;-74
2023/06/03 15:44:36;;;;;;;4.20;3.77;;;27.30;18.60;;;;;;10437991;28;20282;-74
2023/06/03 15:49:39;;;;;;;4.30;3.90;;;27.30;18.70;;;;;;10439185;28;20226;-74
2023/06/03 15:54:43;;;;;;;4.10;3.80;;;27.30;18.70;;;;;;10436068;28;20224;-75
2023/06/03 15:59:47;;;;;;;4.00;3.63;;;27.30;18.80;;;;;;10433265;28;20233;-74
2023/06/03 16:04:51;;;;;;;4.60;4.10;;;27.30;18.40;;;;;;10436790;28;20225;-74
2023/06/03 16:09:54;;;;;;;4.47;4.13;;;27.30;18.50;;;;;;10438555;28;20315;-72
2023/06/03 16:14:58;;;;;;;4.07;3.67;;;27.30;18.50;;;;;;10438286;28;20220;-72
2023/06/03 16:20:02;;;;;;;4.33;3.93;;;27.20;18.30;;;;;;10439791;28;20224;-72
2023/06/03 16:25:06;;;;;;;4.67;4.00;;;27.20;18.60;;;;;;10438015;28;20261;-72
2023/06/03 16:30:11;;;;;;;3.93;3.60;;;27.20;18.60;;;;;;10440478;28;20266;-72
2023/06/03 16:35:14;;;;;;;4.00;3.70;;;27.10;18.50;;;;;;10442172;28;20321;-71
2023/06/03 16:40:17;;;;;;;4.33;4.03;;;27.20;18.50;;;;;;10437410;28;20708;-72
2023/06/03 16:45:22;;;;;;;6.80;3.90;;;27.20;18.60;;;;;;10440182;28;20709;-72
2023/06/03 16:50:25;;;;;;;3.60;3.30;;;27.20;18.40;;;;;;10443808;28;20235;-72
2023/06/03 16:55:28;;;;;;;4.33;3.97;;;27.10;18.50;;;;;;10429739;28;20739;-72
2023/06/03 17:00:33;;;;;;;3.80;3.50;;;27.20;18.50;;;;;;10433779;28;20237;-72
2023/06/03 17:05:36;;;;;;;3.63;3.33;;;27.20;18.30;;;;;;10443517;28;20253;-72
2023/06/03 17:10:39;;;;;;;3.73;3.43;;;27.20;18.60;;;;;;10437939;28;20264;-71
2023/06/03 17:15:44;;;;;;;3.80;3.43;;;27.20;18.40;;;;;;10439144;28;20232;-72
2023/06/03 17:20:47;;;;;;;3.90;3.60;;;27.30;18.30;;;;;;10442227;28;20297;-71
2023/06/03 17:25:50;;;;;;;4.00;3.70;;;27.30;18.30;;;;;;10433313;28;20600;-71
2023/06/03 17:30:55;;;;;;;3.90;3.27;;;27.30;18.20;;;;;;10437191;28;20312;-71
2023/06/03 17:35:58;;;;;;;3.87;3.50;;;27.30;17.90;;;;;;10442963;28;20237;-71
2023/06/03 17:41:01;;;;;;;3.80;3.50;;;27.30;18.10;;;;;;10435800;28;20227;-71
2023/06/03 17:46:06;;;;;;;4.13;3.53;;;27.20;18.00;;;;;;10442610;28;20256;-71
2023/06/03 17:51:09;;;;;;;4.93;3.40;;;27.20;17.80;;;;;;10437821;28;20338;-72
2023/06/03 17:56:13;;;;;;;3.70;3.40;;;27.20;18.20;;;;;;10441731;28;20305;-71
2023/06/03 18:01:17;;;;;;;3.77;3.47;;;27.20;18.20;;;;;;10432941;28;20224;-71
2023/06/03 18:06:20;;;;;;;3.73;3.30;;;27.10;17.90;;;;;;10440186;28;20225;-72
2023/06/03 18:11:26;;;;;;;3.43;3.17;;;27.00;18.10;;;;;;10438053;28;20233;-72
2023/06/03 18:16:30;;;;;;;3.60;3.30;;;26.90;18.10;;;;;;10435602;28;20241;-72
2023/06/03 18:21:33;;;;;;;4.43;3.80;;;26.80;18.10;;;;;;10441564;28;20240;-72
2023/06/03 18:26:37;;;;;;;4.27;3.57;;;26.70;18.40;;;;;;10435757;28;20239;-72
2023/06/03 18:31:41;;;;;;;4.53;3.40;;;26.60;18.40;;;;;;10442580;28;20229;-72
2023/06/03 18:36:45;;;;;;;6.60;3.70;;;26.50;18.50;;;;;;10445029;28;20220;-72
2023/06/03 18:41:48;;;;;;;5.50;3.80;;;26.40;19.00;;;;;;10444215;28;20239;-72
2023/06/03 18:46:53;;;;;;;9.20;3.80;;;26.20;19.00;;;;;;10451553;28;21116;-71
2023/06/03 18:51:56;;;;;;;5.70;3.43;;;26.10;19.10;;;;;;10441882;28;20232;-71
2023/06/03 18:56:59;;;;;;;6.10;3.80;;;26.00;19.00;;;;;;10434801;28;20254;-71
2023/06/03 19:02:04;;;;;;;4.43;3.50;;;25.90;19.00;;;;;;10438126;28;20233;-71
2023/06/03 19:07:07;;;;;;;3.67;3.33;;;25.80;19.00;;;;;;10443834;28;20339;-71
2023/06/03 19:12:10;;;;;;;3.63;3.33;;;25.70;18.90;;;;;;10444648;28;20231;-71
2023/06/03 19:17:15;;;;;;;5.27;3.57;;;25.60;18.80;;;;;;10434258;28;20590;-72
2023/06/03 19:22:18;;;;;;;3.80;3.40;;;25.50;18.80;;;;;;10438475;28;20239;-72
2023/06/03 19:27:21;;;;;;;4.30;3.40;;;25.40;19.00;;;;;;10439620;28;20662;-74
2023/06/03 19:32:26;;;;;;;4.43;3.23;;;25.30;19.10;;;;;;10439482;28;20830;-74
2023/06/03 19:37:29;;;;;;;5.47;3.60;;;25.20;19.40;;;;;;10442150;28;20225;-75
2023/06/03 19:42:33;;;;;;;3.90;3.50;;;25.10;19.60;;;;;;10439284;28;21214;-73
2023/06/03 19:47:37;;;;;;;5.17;3.40;;;25.10;19.60;;;;;;10424993;28;20252;-73
2023/06/03 19:52:40;;;;;;;4.63;3.70;;;24.90;19.60;;;;;;10426250;28;20224;-73
2023/06/03 19:57:57;;;;;;;3.60;3.30;;;24.80;19.50;;;;;;10415435;28;20295;-73
2023/06/03 20:03:02;;;;;;;3.87;3.50;;;24.70;19.60;;;;;;10422587;28;20233;-72
2023/06/03 20:08:06;;;;;;;5.93;3.70;;;24.60;19.70;;;;;;10428492;28;20248;-73
2023/06/03 20:13:09;;;;;;;3.60;3.30;;;24.50;20.30;;;;;;10424049;28;20315;-72
2023/06/03 20:18:28;;;;;;;4.10;3.40;;;24.30;19.70;;;;;;10426730;28;20305;-72
2023/06/03 20:23:32;;;;;;;3.50;3.20;;;24.20;19.70;;;;;;10423778;28;20255;-72
2023/06/03 20:28:36;;;;;;;3.73;2.80;;;24.10;19.60;;;;;;10422596;28;20228;-72
2023/06/03 20:33:40;;;;;;;3.43;3.00;;;24.00;19.70;;;;;;10427383;28;20311;-72
2023/06/03 20:38:43;;;;;;;3.33;3.03;;;23.90;20.00;;;;;;10428196;28;20260;-72
2023/06/03 20:43:47;;;;;;;3.10;2.80;;;23.80;20.10;;;;;;10426578;28;21033;-72
2023/06/03 20:48:51;;;;;;;2.90;2.67;;;23.70;20.10;;;;;;10434959;28;20228;-73
2023/06/03 20:53:55;;;;;;;2.80;2.40;;;23.60;20.30;;;;;;10444901;28;20256;-73
2023/06/03 20:58:58;;;;;;;3.30;2.67;;;23.50;20.00;;;;;;10439782;28;20241;-72
2023/06/03 21:04:03;;;;;;;3.33;3.03;;;23.40;20.20;;;;;;10440658;28;20257;-73
2023/06/03 21:09:06;;;;;;;2.70;2.50;;;23.40;20.40;;;;;;10436256;28;20232;-73
2023/06/03 21:14:12;;;;;;;2.40;2.17;;;23.30;20.00;;;;;;10449089;28;20942;-73
2023/06/03 21:19:16;;;;;;;3.30;2.63;;;23.20;20.00;;;;;;10450139;28;20232;-73
2023/06/03 21:24:20;;;;;;;2.93;2.50;;;23.10;20.00;;;;;;10444945;28;20670;-73
2023/06/03 21:29:23;;;;;;;2.60;2.40;;;23.00;20.50;;;;;;10441133;28;20304;-73
2023/06/03 21:34:28;;;;;;;3.20;2.90;;;22.80;19.90;;;;;;10436825;28;20229;-73
2023/06/03 21:39:31;;;;;;;3.13;2.33;;;22.70;20.00;;;;;;10444629;28;20235;-73
2023/06/03 21:44:37;;;;;;;2.53;2.13;;;22.60;20.00;;;;;;10439446;28;20232;-73
2023/06/03 21:49:44;;;;;;;2.40;2.13;;;22.40;20.00;;;;;;10441171;28;20232;-73
2023/06/03 21:54:47;;;;;;;2.80;2.10;;;22.40;20.20;;;;;;10446322;28;20244;-73
2023/06/03 21:59:51;;;;;;;2.60;2.40;;;22.20;20.20;;;;;;10449498;28;20239;-73
2023/06/03 22:04:56;;;;;;;2.13;1.93;;;22.10;20.30;;;;;;10450101;28;20793;-73
2023/06/03 22:09:59;;;;;;;3.00;2.70;;;22.00;20.30;;;;;;10454048;28;20243;-72
2023/06/03 22:15:02;;;;;;;2.17;1.97;;;21.90;20.20;;;;;;10453664;28;20229;-73
2023/06/03 22:20:08;;;;;;;2.33;2.10;;;21.70;20.40;;;;;;10456512;28;20228;-73
2023/06/03 22:25:11;;;;;;;1.87;1.67;;;21.70;20.50;;;;;;10443255;28;20249;-72
2023/06/03 22:30:14;;;;;;;2.97;2.20;;;21.60;20.50;;;;;;10454195;28;20257;-72
2023/06/03 22:35:19;;;;;;;2.43;1.90;;;21.50;20.60;;;;;;10443583;28;21058;-72
2023/06/03 22:40:22;;;;;;;2.70;2.00;;;21.40;20.60;;;;;;10448342;28;20231;-73
2023/06/03 22:45:26;;;;;;;1.80;1.70;;;21.40;20.60;;;;;;10457374;28;20944;-73
2023/06/03 22:50:30;;;;;;;2.07;1.87;;;21.30;20.50;;;;;;10450541;28;20665;-73
2023/06/03 22:55:33;;;;;;;1.70;1.60;;;21.30;20.50;;;;;;10445701;28;20227;-72
2023/06/03 23:00:37;;;;;;;3.10;2.10;;;21.10;20.40;;;;;;10452206;28;20328;-72
2023/06/03 23:05:41;;;;;;;3.07;2.20;;;21.00;20.40;;;;;;10445845;28;20232;-72
2023/06/03 23:10:45;;;;;;;1.83;1.73;;;20.80;20.60;;;;;;10440674;28;20990;-72
2023/06/03 23:15:48;;;;;;;1.60;1.50;;;20.60;20.70;;;;;;10437729;28;20230;-72
2023/06/03 23:20:53;;;;;;;2.00;1.77;;;20.50;20.90;;;;;;10446495;28;20286;-72
2023/06/03 23:25:56;;;;;;;2.07;1.97;;;20.50;21.30;;;;;;10443335;28;20232;-72
2023/06/03 23:31:00;;;;;;;2.47;1.73;;;20.40;21.20;;;;;;10436360;28;20296;-73
2023/06/03 23:36:06;;;;;;;2.00;1.80;;;20.30;21.20;;;;;;10442980;28;20315;-73
2023/06/03 23:41:09;;;;;;;2.90;1.80;;;20.30;21.40;;;;;;10440087;28;20229;-72
2023/06/03 23:46:12;;;;;;;1.90;1.70;;;20.20;21.20;;;;;;10441763;28;20799;-72
2023/06/03 23:51:17;;;;;;;2.13;1.73;;;20.10;21.30;;;;;;10448181;28;20300;-72
2023/06/03 23:56:20;;;;;;;1.87;1.70;;;20.00;21.60;;;;;;10448973;28;20225;-72
